Terminal Aerodrome Forecast
Issued by NWS

Home | Current Version | Previous Version | Text Only | Print | Product List | Glossary On
Versions: 1 2 3 4 5 6 7 8 9 10 11 12 13 14 15 16 17 18
000
FTUS43 KGRR 282300 RRA
TAFBTL
TAF
KBTL 282345Z 2900/2924 28008KT P6SM SCT025
     FM290300 31008KT P6SM BKN025
     FM290700 36007KT P6SM BKN025
     FM291500 35008KT P6SM BKN035=

USA.gov is the U.S. government's official web portal to all federal, state and local government web resources and services.